Time;durP1;ratioP1;P1;durP2;ratioP2;P2;SDS_P1;SDS_P2;PMS_P1;PMS_P2;Temp;Humidity;BMP_temperature;BMP_pressure;BME280_temperature;BME280_humidity;BME280_pressure;Samples;Min_cycle;Max_cycle;Signal;HPM_P1;HPM_P2
2023/06/10 00:02:10;;;;;;;16.50;10.75;;;;;;;;;;6210351;28;20103;-82
2023/06/10 00:05:12;;;;;;;11.43;9.77;;;;;;;;;;6227192;28;20053;-82
2023/06/10 00:08:15;;;;;;;12.90;10.77;;;;;;;;;;6222094;28;20041;-82
2023/06/10 00:11:17;;;;;;;12.80;10.77;;;;;;;;;;6246013;28;20041;-81
2023/06/10 00:14:19;;;;;;;12.73;10.55;;;;;;;;;;6224550;28;20056;-82
2023/06/10 00:17:23;;;;;;;13.40;10.20;;;;;;;;;;6224691;28;20048;-79
2023/06/10 00:20:25;;;;;;;12.48;11.07;;;;;;;;;;6220473;28;20731;-81
2023/06/10 00:23:29;;;;;;;13.20;11.27;;;;;;;;;;6226036;28;20045;-82
2023/06/10 00:26:31;;;;;;;14.68;11.88;;;;;;;;;;6220764;28;20072;-81
2023/06/10 00:29:36;;;;;;;12.52;10.95;;;;;;;;;;6220263;28;22122;-82
2023/06/10 00:32:37;;;;;;;13.25;11.85;;;;;;;;;;6224975;28;20061;-81
2023/06/10 00:35:39;;;;;;;14.88;11.68;;;;;;;;;;6221481;28;20133;-82
2023/06/10 00:38:41;;;;;;;13.63;11.30;;;;;;;;;;6222660;28;20038;-81
2023/06/10 00:41:43;;;;;;;13.30;10.82;;;;;;;;;;6240189;28;20040;-82
2023/06/10 00:44:46;;;;;;;13.05;10.25;;;;;;;;;;6213632;28;20164;-81
2023/06/10 00:47:48;;;;;;;11.05;9.75;;;;;;;;;;6225827;28;20114;-81
2023/06/10 00:50:50;;;;;;;13.52;10.30;;;;;;;;;;6223839;28;20152;-81
2023/06/10 00:53:52;;;;;;;12.32;10.40;;;;;;;;;;6229821;28;20204;-81
2023/06/10 00:56:55;;;;;;;12.23;10.90;;;;;;;;;;6221001;28;20758;-81
2023/06/10 00:59:57;;;;;;;13.00;10.30;;;;;;;;;;6220768;28;20064;-82
2023/06/10 01:02:58;;;;;;;12.03;10.73;;;;;;;;;;6214886;28;20534;-82
2023/06/10 01:06:39;;;;;;;12.75;11.20;;;;;;;;;;6220409;28;20053;-81
2023/06/10 01:09:53;;;;;;;13.88;10.57;;;;;;;;;;6250069;28;20041;-82
2023/06/10 01:13:02;;;;;;;13.30;11.32;;;;;;;;;;6211672;28;20057;-81
2023/06/10 01:16:04;;;;;;;12.57;10.38;;;;;;;;;;6222588;28;20053;-81
2023/06/10 01:19:07;;;;;;;13.75;9.85;;;;;;;;;;6221265;28;20423;-81
2023/06/10 01:22:10;;;;;;;12.75;10.38;;;;;;;;;;6221286;28;20056;-79
2023/06/10 01:25:12;;;;;;;15.02;11.07;;;;;;;;;;6221015;28;20045;-81
2023/06/10 01:28:29;;;;;;;11.85;10.43;;;;;;;;;;6207891;28;20049;-81
2023/06/10 01:31:38;;;;;;;14.02;11.90;;;;;;;;;;6220746;28;20050;-81
2023/06/10 01:34:43;;;;;;;13.55;11.32;;;;;;;;;;6237647;28;20054;-81
2023/06/10 01:37:46;;;;;;;13.25;11.20;;;;;;;;;;6225736;28;20053;-81
2023/06/10 01:40:49;;;;;;;14.38;11.48;;;;;;;;;;6230300;28;20048;-81
2023/06/10 01:43:50;;;;;;;;;;;;;;;;;;6224296;28;20419;-81
2023/06/10 01:46:52;;;;;;;14.05;11.43;;;;;;;;;;6254158;28;19943;-82
2023/06/10 01:49:54;;;;;;;15.45;11.70;;;;;;;;;;6223100;28;20755;-82
2023/06/10 01:52:58;;;;;;;14.45;11.57;;;;;;;;;;6211843;28;20045;-82
2023/06/10 01:56:01;;;;;;;13.07;10.98;;;;;;;;;;6228068;28;20046;-81
2023/06/10 01:59:03;;;;;;;15.00;11.48;;;;;;;;;;6227995;28;20053;-81
2023/06/10 02:02:05;;;;;;;14.77;11.68;;;;;;;;;;6222474;28;20049;-81
2023/06/10 02:05:07;;;;;;;15.60;11.90;;;;;;;;;;6220641;28;20503;-80
2023/06/10 02:08:09;;;;;;;14.63;11.60;;;;;;;;;;6243597;28;20534;-80
2023/06/10 02:11:11;;;;;;;13.65;11.32;;;;;;;;;;6216995;28;20064;-80
2023/06/10 02:14:12;;;;;;;13.88;11.70;;;;;;;;;;6223644;28;20068;-81
2023/06/10 02:17:14;;;;;;;13.55;12.10;;;;;;;;;;6215234;28;20038;-79
2023/06/10 02:20:16;;;;;;;12.93;11.35;;;;;;;;;;6210120;28;20045;-82
2023/06/10 02:23:18;;;;;;;13.82;11.60;;;;;;;;;;6201692;28;20593;-81
2023/06/10 02:26:20;;;;;;;13.90;11.85;;;;;;;;;;6217331;28;20422;-80
2023/06/10 02:29:22;;;;;;;14.27;12.00;;;;;;;;;;6223598;28;20052;-80
2023/06/10 02:32:25;;;;;;;13.63;11.45;;;;;;;;;;6225916;28;20046;-82
2023/06/10 02:35:27;;;;;;;15.88;12.25;;;;;;;;;;6233694;28;20045;-79
2023/06/10 02:38:30;;;;;;;14.27;11.88;;;;;;;;;;6224258;28;20053;-80
2023/06/10 02:41:32;;;;;;;14.52;12.10;;;;;;;;;;6229898;28;20042;-79
2023/06/10 02:44:38;;;;;;;14.38;11.60;;;;;;;;;;6231368;28;20074;-79
2023/06/10 02:47:41;;;;;;;14.10;11.88;;;;;;;;;;6234890;28;20045;-79
2023/06/10 02:50:45;;;;;;;14.88;11.50;;;;;;;;;;6233705;28;20520;-80
2023/06/10 02:54:03;;;;;;;13.48;11.60;;;;;;;;;;6234109;28;20125;-81
2023/06/10 02:57:06;;;;;;;14.90;11.70;;;;;;;;;;6222732;28;20517;-80
2023/06/10 03:00:10;;;;;;;13.23;11.02;;;;;;;;;;6243067;28;20523;-79
2023/06/10 03:03:14;;;;;;;13.85;11.98;;;;;;;;;;6230333;28;20407;-80
2023/06/10 03:06:26;;;;;;;14.45;12.15;;;;;;;;;;6260857;28;20188;-80
2023/06/10 03:09:35;;;;;;;16.08;11.77;;;;;;;;;;6233505;28;20052;-79
2023/06/10 03:12:38;;;;;;;16.08;12.13;;;;;;;;;;6230180;28;20049;-80
2023/06/10 03:15:40;;;;;;;16.13;12.38;;;;;;;;;;6230910;28;20064;-81
2023/06/10 03:18:46;;;;;;;15.50;11.88;;;;;;;;;;6217781;28;20618;-82
2023/06/10 03:21:54;;;;;;;13.73;11.13;;;;;;;;;;6228699;28;20572;-81
2023/06/10 03:24:57;;;;;;;13.48;11.40;;;;;;;;;;6217641;28;20088;-82
2023/06/10 03:27:59;;;;;;;14.20;11.55;;;;;;;;;;6227142;28;20059;-81
2023/06/10 03:31:01;;;;;;;15.23;11.40;;;;;;;;;;6227377;28;20088;-80
2023/06/10 03:34:05;;;;;;;13.98;11.73;;;;;;;;;;6233459;28;20053;-80
2023/06/10 03:37:07;;;;;;;13.65;11.38;;;;;;;;;;6211448;28;20097;-79
2023/06/10 03:40:09;;;;;;;14.70;12.73;;;;;;;;;;6234131;28;20149;-81
2023/06/10 03:43:14;;;;;;;16.55;12.25;;;;;;;;;;6227315;28;20466;-80
2023/06/10 03:46:17;;;;;;;16.60;12.53;;;;;;;;;;6229968;28;20045;-80
2023/06/10 03:49:19;;;;;;;19.23;12.93;;;;;;;;;;6250994;28;20104;-80
2023/06/10 03:52:21;;;;;;;16.25;13.32;;;;;;;;;;6239862;28;20053;-80
2023/06/10 03:55:23;;;;;;;18.70;13.00;;;;;;;;;;6232450;28;20046;-81
2023/06/10 03:58:25;;;;;;;14.02;11.43;;;;;;;;;;6229441;28;20586;-79
2023/06/10 04:01:28;;;;;;;16.50;12.45;;;;;;;;;;6215382;28;20038;-80
2023/06/10 04:04:29;;;;;;;14.90;12.43;;;;;;;;;;6231633;28;20056;-80
2023/06/10 04:07:34;;;;;;;14.10;12.60;;;;;;;;;;6227747;28;20546;-79
2023/06/10 04:10:36;;;;;;;17.85;12.23;;;;;;;;;;6233815;28;20045;-78
2023/06/10 04:13:37;;;;;;;13.60;12.15;;;;;;;;;;6234298;28;20059;-80
2023/06/10 04:16:41;;;;;;;14.60;12.07;;;;;;;;;;6214716;28;20152;-80
2023/06/10 04:19:43;;;;;;;15.85;12.57;;;;;;;;;;6224232;28;20042;-80
2023/06/10 04:22:46;;;;;;;15.27;11.82;;;;;;;;;;6218068;28;20526;-80
2023/06/10 04:25:49;;;;;;;16.92;12.18;;;;;;;;;;6231473;28;20128;-79
2023/06/10 04:28:51;;;;;;;15.77;12.40;;;;;;;;;;6227986;28;20068;-80
2023/06/10 04:31:53;;;;;;;17.77;12.65;;;;;;;;;;6226429;28;20049;-81
2023/06/10 04:34:56;;;;;;;15.02;12.13;;;;;;;;;;6227765;28;20038;-79
2023/06/10 04:37:58;;;;;;;18.23;11.80;;;;;;;;;;6229525;28;20414;-80
2023/06/10 04:41:00;;;;;;;16.23;11.65;;;;;;;;;;6229601;28;20085;-81
2023/06/10 04:44:06;;;;;;;12.85;10.77;;;;;;;;;;6229828;28;20172;-79
2023/06/10 04:47:07;;;;;;;16.13;11.77;;;;;;;;;;6223351;28;20037;-79
2023/06/10 04:50:10;;;;;;;16.00;12.38;;;;;;;;;;6227568;28;20041;-81
2023/06/10 04:53:11;;;;;;;16.48;12.63;;;;;;;;;;6228110;28;20050;-80
2023/06/10 04:56:17;;;;;;;16.95;12.50;;;;;;;;;;6225972;28;20112;-80
2023/06/10 04:59:18;;;;;;;15.63;11.63;;;;;;;;;;6224799;28;20057;-80
2023/06/10 05:02:20;;;;;;;17.25;13.18;;;;;;;;;;6209328;28;20041;-80
2023/06/10 05:05:22;;;;;;;20.27;14.60;;;;;;;;;;6214949;28;20045;-81
2023/06/10 05:08:24;;;;;;;17.20;12.95;;;;;;;;;;6205735;28;20565;-80
2023/06/10 05:11:25;;;;;;;20.40;15.00;;;;;;;;;;6221230;28;20112;-82
2023/06/10 05:14:27;;;;;;;21.42;15.40;;;;;;;;;;6211897;28;20068;-81
2023/06/10 05:17:29;;;;;;;23.73;17.10;;;;;;;;;;6209169;28;20042;-81
2023/06/10 05:20:31;;;;;;;26.00;17.77;;;;;;;;;;6218848;28;20427;-81
2023/06/10 05:23:33;;;;;;;22.38;16.35;;;;;;;;;;6221616;28;20047;-82
2023/06/10 05:26:37;;;;;;;25.83;16.08;;;;;;;;;;6249640;28;20053;-81
2023/06/10 05:29:39;;;;;;;23.08;16.00;;;;;;;;;;6230814;28;20052;-81
2023/06/10 05:32:41;;;;;;;20.27;15.18;;;;;;;;;;6233229;28;20415;-81
2023/06/10 05:35:43;;;;;;;21.15;15.00;;;;;;;;;;6239439;28;20045;-82
2023/06/10 05:38:45;;;;;;;18.48;15.13;;;;;;;;;;6228232;28;20045;-82
2023/06/10 05:41:47;;;;;;;21.85;15.50;;;;;;;;;;6226274;28;20049;-81
2023/06/10 05:44:49;;;;;;;20.63;15.10;;;;;;;;;;6215408;28;20052;-81
2023/06/10 05:47:52;;;;;;;19.90;15.52;;;;;;;;;;6223831;28;20138;-81
2023/06/10 05:50:54;;;;;;;20.92;14.88;;;;;;;;;;6226053;28;20933;-80
2023/06/10 05:53:55;;;;;;;19.13;14.35;;;;;;;;;;6226796;28;20052;-81
2023/06/10 05:56:57;;;;;;;19.02;13.90;;;;;;;;;;6227094;28;20046;-82
2023/06/10 05:59:59;;;;;;;20.25;14.38;;;;;;;;;;6233746;28;20038;-82
2023/06/10 06:03:00;;;;;;;17.90;14.00;;;;;;;;;;6232092;28;20046;-82
2023/06/10 06:06:03;;;;;;;18.40;13.77;;;;;;;;;;6247874;28;20054;-81
2023/06/10 06:09:04;;;;;;;21.20;14.37;;;;;;;;;;6213053;28;20051;-81
2023/06/10 06:12:07;;;;;;;19.27;13.32;;;;;;;;;;6225789;28;20050;-80
2023/06/10 06:15:10;;;;;;;;;;;;;;;;;;6232683;28;20047;-81
2023/06/10 06:18:12;;;;;;;18.90;13.07;;;;;;;;;;6217771;28;19928;-81
2023/06/10 06:21:13;;;;;;;17.15;12.57;;;;;;;;;;6232170;28;20049;-81
2023/06/10 06:24:16;;;;;;;19.48;12.70;;;;;;;;;;6224413;28;20045;-80
2023/06/10 06:27:18;;;;;;;15.05;10.77;;;;;;;;;;6229452;28;20503;-80
2023/06/10 06:30:20;;;;;;;16.05;9.65;;;;;;;;;;6228751;28;20053;-80
2023/06/10 06:33:21;;;;;;;14.75;9.60;;;;;;;;;;6244368;28;20415;-80
2023/06/10 06:36:23;;;;;;;10.98;8.70;;;;;;;;;;6228191;28;20054;-81
2023/06/10 06:39:25;;;;;;;10.57;9.20;;;;;;;;;;6207341;28;20057;-81
2023/06/10 06:42:28;;;;;;;8.43;6.90;;;;;;;;;;6227062;28;20107;-79
2023/06/10 06:45:39;;;;;;;9.38;7.50;;;;;;;;;;6228456;28;20041;-80
2023/06/10 06:48:42;;;;;;;8.38;6.90;;;;;;;;;;6241833;28;20049;-81
2023/06/10 06:51:44;;;;;;;7.38;6.55;;;;;;;;;;6225869;28;20101;-81
2023/06/10 06:54:46;;;;;;;9.10;6.97;;;;;;;;;;6229662;28;20060;-80
2023/06/10 06:57:47;;;;;;;9.43;6.68;;;;;;;;;;6222162;28;20050;-80
2023/06/10 07:00:50;;;;;;;7.15;5.97;;;;;;;;;;6224556;28;20037;-81
2023/06/10 07:03:51;;;;;;;9.25;5.97;;;;;;;;;;6225559;28;20045;-81
2023/06/10 07:06:53;;;;;;;6.15;5.55;;;;;;;;;;6222363;28;20488;-81
2023/06/10 07:09:55;;;;;;;8.15;5.72;;;;;;;;;;6226928;28;20061;-82
2023/06/10 07:12:57;;;;;;;8.93;5.87;;;;;;;;;;6223376;28;20104;-82
2023/06/10 07:15:59;;;;;;;8.18;5.60;;;;;;;;;;6225661;28;20131;-80
2023/06/10 07:19:00;;;;;;;6.40;5.78;;;;;;;;;;6223269;28;20115;-81
2023/06/10 07:22:06;;;;;;;7.18;5.88;;;;;;;;;;6206047;28;20046;-83
2023/06/10 07:25:08;;;;;;;9.35;5.95;;;;;;;;;;6225324;28;20100;-81
2023/06/10 07:28:10;;;;;;;;;;;;;;;;;;6225295;28;20466;-82
2023/06/10 07:31:12;;;;;;;6.60;5.60;;;;;;;;;;6226265;28;19928;-80
2023/06/10 07:34:14;;;;;;;7.05;5.85;;;;;;;;;;6253635;28;20367;-79
2023/06/10 07:37:15;;;;;;;6.93;6.13;;;;;;;;;;6232515;28;20060;-78
2023/06/10 07:40:17;;;;;;;6.80;5.80;;;;;;;;;;6235193;28;20038;-78
2023/06/10 07:43:19;;;;;;;8.73;5.90;;;;;;;;;;6229025;28;20449;-79
2023/06/10 07:46:22;;;;;;;9.20;6.32;;;;;;;;;;6226827;28;20045;-79
2023/06/10 07:49:24;;;;;;;7.78;6.00;;;;;;;;;;6213550;28;20680;-80
2023/06/10 07:52:26;;;;;;;9.50;6.10;;;;;;;;;;6236095;28;20539;-84
2023/06/10 07:55:28;;;;;;;7.43;6.33;;;;;;;;;;6229257;28;20523;-81
2023/06/10 07:58:30;;;;;;;7.03;6.05;;;;;;;;;;6221610;28;20052;-79
2023/06/10 08:01:32;;;;;;;8.30;6.07;;;;;;;;;;6210005;28;20072;-80
2023/06/10 08:04:35;;;;;;;6.88;5.75;;;;;;;;;;6226902;28;20041;-79
2023/06/10 08:07:37;;;;;;;10.07;6.18;;;;;;;;;;6220626;28;20400;-79
2023/06/10 08:10:38;;;;;;;8.13;6.37;;;;;;;;;;6222342;28;20040;-80
2023/06/10 08:13:41;;;;;;;7.57;6.20;;;;;;;;;;6227435;28;20351;-81
2023/06/10 08:16:43;;;;;;;6.38;5.70;;;;;;;;;;6231957;28;20053;-81
2023/06/10 08:19:45;;;;;;;9.27;6.07;;;;;;;;;;6223327;28;20724;-80
2023/06/10 08:22:50;;;;;;;7.88;5.95;;;;;;;;;;6223979;28;20046;-79
2023/06/10 08:25:52;;;;;;;8.63;6.25;;;;;;;;;;6227850;28;20038;-80
2023/06/10 08:28:55;;;;;;;7.05;6.25;;;;;;;;;;6224963;28;20071;-80
2023/06/10 08:31:58;;;;;;;7.25;6.55;;;;;;;;;;6228805;28;20046;-81
2023/06/10 08:34:59;;;;;;;7.22;6.53;;;;;;;;;;6222588;28;20124;-81
2023/06/10 08:38:01;;;;;;;6.50;5.90;;;;;;;;;;6229474;28;20046;-79
2023/06/10 08:41:05;;;;;;;8.98;5.88;;;;;;;;;;6224450;28;20058;-80
2023/06/10 08:44:20;;;;;;;8.32;6.40;;;;;;;;;;6240013;28;20504;-81
2023/06/10 08:47:24;;;;;;;9.00;6.15;;;;;;;;;;6218026;28;20041;-78
2023/06/10 08:50:29;;;;;;;7.20;6.22;;;;;;;;;;6218414;28;20053;-79
2023/06/10 08:53:36;;;;;;;7.18;6.47;;;;;;;;;;6223275;28;20512;-80
2023/06/10 08:56:40;;;;;;;9.05;6.15;;;;;;;;;;6209554;28;20056;-80
2023/06/10 08:59:42;;;;;;;8.50;6.45;;;;;;;;;;6223329;28;20725;-79
2023/06/10 09:02:44;;;;;;;9.07;6.80;;;;;;;;;;6223627;28;20068;-80
2023/06/10 09:05:46;;;;;;;13.05;6.97;;;;;;;;;;6223806;28;20046;-82
2023/06/10 09:08:48;;;;;;;7.53;6.72;;;;;;;;;;6220711;28;20050;-77
2023/06/10 09:11:50;;;;;;;8.00;5.88;;;;;;;;;;6193149;28;20504;-77
2023/06/10 09:14:52;;;;;;;7.83;6.43;;;;;;;;;;6219443;28;20050;-82
2023/06/10 09:17:54;;;;;;;6.50;5.90;;;;;;;;;;6220712;28;20452;-77
2023/06/10 09:20:55;;;;;;;9.20;6.45;;;;;;;;;;6251808;28;20042;-77
2023/06/10 09:23:57;;;;;;;7.55;6.78;;;;;;;;;;6219598;28;20037;-77
2023/06/10 09:27:05;;;;;;;7.53;6.55;;;;;;;;;;6219358;28;20587;-76
2023/06/10 09:30:07;;;;;;;7.63;6.88;;;;;;;;;;6226141;28;20045;-76
2023/06/10 09:33:12;;;;;;;12.40;6.85;;;;;;;;;;6227031;28;20054;-77
2023/06/10 09:36:23;;;;;;;7.63;6.50;;;;;;;;;;6217953;28;20033;-77
2023/06/10 09:39:25;;;;;;;7.13;6.03;;;;;;;;;;6249662;28;20069;-78
2023/06/10 09:42:26;;;;;;;9.02;6.63;;;;;;;;;;6216035;28;20369;-78
2023/06/10 09:45:32;;;;;;;7.78;6.43;;;;;;;;;;6225120;28;20049;-77
2023/06/10 09:48:40;;;;;;;12.15;6.45;;;;;;;;;;6217001;28;20119;-77
2023/06/10 09:51:52;;;;;;;9.93;6.35;;;;;;;;;;6220898;28;20053;-77
2023/06/10 09:54:58;;;;;;;;;;;;;;;;;;6216246;28;20096;-76
2023/06/10 09:58:03;;;;;;;9.25;6.13;;;;;;;;;;6218267;28;19925;-76
2023/06/10 10:01:06;;;;;;;;;;;;;;;;;;6216419;28;20050;-77
2023/06/10 10:04:08;;;;;;;7.10;6.40;;;;;;;;;;6220454;28;19932;-75
2023/06/10 10:07:13;;;;;;;8.25;6.15;;;;;;;;;;6214472;28;20081;-76
2023/06/10 10:10:16;;;;;;;6.70;6.10;;;;;;;;;;6217785;28;20057;-77
2023/06/10 10:13:18;;;;;;;9.77;5.90;;;;;;;;;;6215265;28;20053;-76
2023/06/10 10:16:35;;;;;;;5.78;5.28;;;;;;;;;;6218233;28;20037;-76
2023/06/10 10:19:47;;;;;;;6.88;5.78;;;;;;;;;;6220563;28;20045;-75
2023/06/10 10:22:50;;;;;;;7.97;5.60;;;;;;;;;;6220081;28;20050;-75
2023/06/10 10:25:54;;;;;;;6.28;5.78;;;;;;;;;;6217289;28;20049;-76
2023/06/10 10:29:11;;;;;;;9.20;5.80;;;;;;;;;;6213302;28;20550;-76
2023/06/10 10:32:14;;;;;;;7.50;5.97;;;;;;;;;;6213659;28;20065;-76
2023/06/10 10:35:23;;;;;;;8.25;5.65;;;;;;;;;;6213789;28;20431;-76
2023/06/10 10:38:25;;;;;;;8.80;5.70;;;;;;;;;;6215413;28;20128;-75
2023/06/10 10:41:27;;;;;;;6.13;5.53;;;;;;;;;;6239663;28;20482;-76
2023/06/10 10:44:29;;;;;;;6.72;5.88;;;;;;;;;;6215520;28;20150;-78
2023/06/10 10:47:33;;;;;;;6.85;5.50;;;;;;;;;;6230238;28;20058;-79
2023/06/10 10:50:35;;;;;;;6.97;5.40;;;;;;;;;;6226588;28;20731;-78
2023/06/10 10:53:38;;;;;;;6.55;5.40;;;;;;;;;;6224088;28;20907;-77
2023/06/10 10:57:09;;;;;;;7.25;5.65;;;;;;;;;;6229185;28;20091;-77
2023/06/10 11:00:11;;;;;;;8.77;5.80;;;;;;;;;;6225187;28;20054;-78
2023/06/10 11:03:16;;;;;;;6.38;5.57;;;;;;;;;;6221698;28;20058;-76
2023/06/10 11:06:19;;;;;;;5.57;5.05;;;;;;;;;;6222992;28;20050;-78
2023/06/10 11:09:28;;;;;;;7.57;5.32;;;;;;;;;;6220814;28;20045;-78
2023/06/10 11:12:45;;;;;;;6.28;5.50;;;;;;;;;;6217391;28;20548;-78
2023/06/10 11:15:52;;;;;;;9.02;5.63;;;;;;;;;;6224381;28;20041;-76
2023/06/10 11:18:54;;;;;;;6.18;5.47;;;;;;;;;;6233371;28;20053;-78
2023/06/10 11:22:05;;;;;;;7.82;5.78;;;;;;;;;;6222776;28;22263;-76
2023/06/10 11:25:14;;;;;;;7.07;5.47;;;;;;;;;;6236178;28;20049;-77
2023/06/10 11:28:20;;;;;;;6.20;5.00;;;;;;;;;;6220942;28;20423;-77
2023/06/10 11:31:26;;;;;;;7.25;5.40;;;;;;;;;;6221339;28;20562;-78
2023/06/10 11:34:29;;;;;;;6.60;5.30;;;;;;;;;;6206721;28;20612;-77
2023/06/10 11:37:31;;;;;;;5.90;5.30;;;;;;;;;;6219615;28;20060;-77
2023/06/10 11:40:33;;;;;;;5.75;5.25;;;;;;;;;;6223049;28;20045;-79
2023/06/10 11:43:36;;;;;;;5.78;5.28;;;;;;;;;;6220916;28;20054;-77
2023/06/10 11:46:39;;;;;;;7.18;5.30;;;;;;;;;;6221774;28;20054;-76
2023/06/10 11:49:40;;;;;;;6.85;5.72;;;;;;;;;;6210187;28;20045;-77
2023/06/10 11:52:46;;;;;;;6.32;5.38;;;;;;;;;;6219145;28;20045;-79
2023/06/10 11:55:50;;;;;;;5.80;5.10;;;;;;;;;;6216451;28;20052;-77
2023/06/10 11:58:54;;;;;;;6.85;5.45;;;;;;;;;;6218267;28;20149;-76
2023/06/10 12:01:56;;;;;;;6.18;5.35;;;;;;;;;;6221368;28;20042;-76
2023/06/10 12:05:10;;;;;;;6.32;5.63;;;;;;;;;;6223432;28;20092;-77
2023/06/10 12:08:13;;;;;;;8.05;5.68;;;;;;;;;;6220558;28;20053;-77
2023/06/10 12:11:14;;;;;;;6.05;5.45;;;;;;;;;;6221129;28;20244;-76
2023/06/10 12:14:16;;;;;;;7.55;5.80;;;;;;;;;;6230264;28;20049;-77
2023/06/10 12:17:22;;;;;;;8.80;5.75;;;;;;;;;;6238005;28;20415;-77
2023/06/10 12:20:29;;;;;;;6.93;5.90;;;;;;;;;;6213091;28;20153;-76
2023/06/10 12:23:31;;;;;;;7.13;5.72;;;;;;;;;;6218193;28;20496;-77
2023/06/10 12:26:38;;;;;;;6.70;6.10;;;;;;;;;;6226901;28;20494;-76
2023/06/10 12:29:53;;;;;;;6.43;5.75;;;;;;;;;;6229178;28;20053;-77
2023/06/10 12:32:55;;;;;;;7.43;5.25;;;;;;;;;;6222530;28;20045;-77
2023/06/10 12:35:57;;;;;;;7.93;6.32;;;;;;;;;;6221677;28;20541;-78
2023/06/10 12:39:03;;;;;;;6.72;6.00;;;;;;;;;;6223413;28;20105;-77
2023/06/10 12:42:08;;;;;;;5.53;5.03;;;;;;;;;;6225176;28;20184;-77
2023/06/10 12:45:11;;;;;;;5.97;5.30;;;;;;;;;;6236033;28;20054;-76
2023/06/10 12:48:21;;;;;;;5.65;4.90;;;;;;;;;;6223558;28;20674;-76
2023/06/10 12:51:23;;;;;;;5.85;5.35;;;;;;;;;;6218554;28;20482;-77
2023/06/10 12:54:25;;;;;;;6.10;5.45;;;;;;;;;;6239368;28;20065;-77
2023/06/10 12:57:26;;;;;;;5.97;5.13;;;;;;;;;;6217206;28;20050;-76
2023/06/10 13:00:30;;;;;;;7.50;4.75;;;;;;;;;;6221906;28;20053;-77
2023/06/10 13:03:31;;;;;;;5.63;5.13;;;;;;;;;;6216071;28;20042;-77
2023/06/10 13:06:36;;;;;;;6.43;5.20;;;;;;;;;;6218034;28;20045;-78
2023/06/10 13:09:38;;;;;;;6.85;5.45;;;;;;;;;;6221252;28;20419;-77
2023/06/10 13:12:40;;;;;;;6.40;5.25;;;;;;;;;;6214947;28;20046;-77
2023/06/10 13:15:49;;;;;;;7.07;5.50;;;;;;;;;;6218910;28;20045;-78
2023/06/10 13:18:53;;;;;;;5.93;5.18;;;;;;;;;;6255233;28;20536;-77
2023/06/10 13:21:55;;;;;;;5.90;5.30;;;;;;;;;;6218191;28;20480;-77
2023/06/10 13:24:57;;;;;;;5.82;5.30;;;;;;;;;;6216568;28;20049;-78
2023/06/10 13:27:59;;;;;;;;;;;;;;;;;;6219605;28;20522;-79
2023/06/10 13:31:00;;;;;;;6.18;5.57;;;;;;;;;;6237665;28;20365;-77
2023/06/10 13:34:02;;;;;;;5.95;5.43;;;;;;;;;;6248561;28;20042;-80
2023/06/10 13:37:05;;;;;;;5.70;5.10;;;;;;;;;;6229677;28;20539;-77
2023/06/10 13:40:07;;;;;;;7.07;5.43;;;;;;;;;;6228618;28;20072;-78
2023/06/10 13:43:09;;;;;;;6.63;5.97;;;;;;;;;;6226836;28;20061;-78
2023/06/10 13:46:11;;;;;;;5.82;5.32;;;;;;;;;;6230975;28;20054;-80
2023/06/10 13:49:13;;;;;;;7.43;5.40;;;;;;;;;;6233570;28;20041;-78
2023/06/10 13:52:15;;;;;;;7.32;5.35;;;;;;;;;;6225117;28;20057;-78
2023/06/10 13:55:18;;;;;;;6.72;5.10;;;;;;;;;;6228507;28;20050;-78
2023/06/10 13:58:20;;;;;;;6.00;5.18;;;;;;;;;;6231014;28;20048;-80
2023/06/10 14:01:21;;;;;;;;;;;;;;;;;;6229126;28;20037;-79
2023/06/10 14:04:23;;;;;;;6.72;5.40;;;;;;;;;;6233719;28;19921;-78
2023/06/10 14:07:25;;;;;;;;;;;;;;;;;;6227306;28;20046;-82
2023/06/10 14:10:27;;;;;;;;;;;;;;;;;;6245525;28;19946;-81
2023/06/10 14:13:29;;;;;;;5.88;4.75;;;;;;;;;;6225383;28;19983;-81
2023/06/10 14:16:31;;;;;;;5.38;4.88;;;;;;;;;;6226524;28;20057;-79
2023/06/10 14:19:32;;;;;;;5.63;5.13;;;;;;;;;;6231752;28;20530;-80
2023/06/10 14:22:34;;;;;;;6.55;5.70;;;;;;;;;;6230173;28;20050;-81
2023/06/10 14:25:36;;;;;;;5.47;4.97;;;;;;;;;;6228025;28;20073;-81
2023/06/10 14:28:38;;;;;;;7.38;5.50;;;;;;;;;;6218701;28;20056;-80
2023/06/10 14:31:40;;;;;;;8.63;5.80;;;;;;;;;;6226709;28;20124;-81
2023/06/10 14:34:44;;;;;;;6.25;5.60;;;;;;;;;;6229247;28;20049;-81
2023/06/10 14:37:45;;;;;;;5.47;5.05;;;;;;;;;;6233579;28;20053;-81
2023/06/10 14:40:47;;;;;;;6.63;5.93;;;;;;;;;;6237676;28;20047;-82
2023/06/10 14:43:49;;;;;;;6.88;5.32;;;;;;;;;;6229636;28;20799;-80
2023/06/10 14:46:50;;;;;;;5.63;5.13;;;;;;;;;;6234022;28;20072;-80
2023/06/10 14:49:52;;;;;;;8.75;5.13;;;;;;;;;;6230980;28;20037;-80
2023/06/10 14:52:54;;;;;;;6.82;5.38;;;;;;;;;;6230811;28;20081;-81
2023/06/10 14:55:55;;;;;;;5.32;4.85;;;;;;;;;;6224875;28;20049;-80
2023/06/10 14:58:57;;;;;;;5.38;4.53;;;;;;;;;;6229227;28;20060;-79
2023/06/10 15:02:00;;;;;;;5.38;4.88;;;;;;;;;;6233438;28;20050;-80
2023/06/10 15:05:03;;;;;;;5.07;4.57;;;;;;;;;;6215094;28;21155;-79
2023/06/10 15:08:05;;;;;;;5.32;4.78;;;;;;;;;;6227219;28;20131;-79
2023/06/10 15:11:07;;;;;;;4.65;4.22;;;;;;;;;;6218567;28;20776;-81
2023/06/10 15:14:09;;;;;;;6.47;4.80;;;;;;;;;;6225985;28;20050;-79
2023/06/10 15:17:10;;;;;;;;;;;;;;;;;;6214162;28;20055;-79
2023/06/10 15:20:12;;;;;;;5.23;4.77;;;;;;;;;;6226346;28;20414;-81
2023/06/10 15:23:14;;;;;;;4.95;4.45;;;;;;;;;;6228285;28;20051;-81
2023/06/10 15:26:15;;;;;;;5.10;4.70;;;;;;;;;;6231241;28;20054;-81
2023/06/10 15:29:17;;;;;;;5.05;4.60;;;;;;;;;;6234293;28;20050;-80
2023/06/10 15:32:19;;;;;;;5.45;4.95;;;;;;;;;;6228329;28;20460;-80
2023/06/10 15:35:21;;;;;;;4.80;4.40;;;;;;;;;;6233935;28;20472;-81
2023/06/10 15:38:23;;;;;;;5.82;4.20;;;;;;;;;;6230932;28;20489;-81
2023/06/10 15:41:25;;;;;;;5.13;4.63;;;;;;;;;;6233994;28;20049;-79
2023/06/10 15:44:26;;;;;;;7.13;5.00;;;;;;;;;;6236185;28;20117;-82
2023/06/10 15:47:28;;;;;;;5.50;4.65;;;;;;;;;;6229478;28;20046;-84
2023/06/10 15:50:30;;;;;;;4.95;4.55;;;;;;;;;;6233827;28;20554;-84
2023/06/10 15:53:32;;;;;;;;;;;;;;;;;;6233220;28;20113;-81
2023/06/10 15:56:33;;;;;;;4.77;4.37;;;;;;;;;;6215731;28;19935;-82
2023/06/10 15:59:35;;;;;;;5.55;4.70;;;;;;;;;;6228651;28;20728;-75
2023/06/10 16:02:37;;;;;;;5.72;4.82;;;;;;;;;;6224645;28;20042;-74
2023/06/10 16:05:39;;;;;;;5.65;5.15;;;;;;;;;;6219756;28;20048;-74
2023/06/10 16:08:40;;;;;;;5.10;4.50;;;;;;;;;;6191981;28;20070;-74
2023/06/10 16:11:42;;;;;;;5.28;4.70;;;;;;;;;;6211894;28;20046;-75
2023/06/10 16:14:44;;;;;;;6.72;5.10;;;;;;;;;;6227769;28;20127;-74
2023/06/10 16:17:46;;;;;;;5.40;4.90;;;;;;;;;;6225707;28;20046;-75
2023/06/10 16:20:48;;;;;;;5.72;4.90;;;;;;;;;;6194787;28;20045;-75
2023/06/10 16:23:50;;;;;;;5.65;4.68;;;;;;;;;;6218898;28;20148;-74
2023/06/10 16:26:52;;;;;;;5.45;5.03;;;;;;;;;;6222901;28;20045;-74
2023/06/10 16:29:54;;;;;;;5.70;4.70;;;;;;;;;;6224540;28;20405;-74
2023/06/10 16:32:56;;;;;;;5.95;5.32;;;;;;;;;;6218032;28;20084;-75
2023/06/10 16:35:58;;;;;;;5.85;5.20;;;;;;;;;;6218995;28;20598;-74
2023/06/10 16:38:59;;;;;;;5.65;5.15;;;;;;;;;;6224538;28;20041;-74
2023/06/10 16:42:01;;;;;;;6.50;5.35;;;;;;;;;;6212925;28;20693;-74
2023/06/10 16:45:03;;;;;;;5.38;4.88;;;;;;;;;;6217478;28;20060;-74
2023/06/10 16:48:06;;;;;;;;;;;;;;;;;;6220469;28;20061;-74
2023/06/10 16:51:08;;;;;;;;;;;;;;;;;;6218514;28;19921;-74
2023/06/10 16:54:09;;;;;;;6.25;5.63;;;;;;;;;;6224696;28;19925;-74
2023/06/10 16:57:11;;;;;;;6.57;5.95;;;;;;;;;;6218854;28;20419;-78
2023/06/10 17:00:13;;;;;;;5.72;5.00;;;;;;;;;;6217522;28;20057;-77
2023/06/10 17:03:15;;;;;;;6.53;5.55;;;;;;;;;;6218302;28;20535;-77
2023/06/10 17:06:18;;;;;;;6.50;5.47;;;;;;;;;;6201131;28;20046;-76
2023/06/10 17:09:20;;;;;;;6.80;6.20;;;;;;;;;;6219661;28;20045;-76
2023/06/10 17:12:21;;;;;;;9.45;6.32;;;;;;;;;;6219192;28;20053;-76
2023/06/10 17:15:23;;;;;;;6.60;6.00;;;;;;;;;;6215575;28;20068;-76
2023/06/10 17:18:25;;;;;;;8.27;6.30;;;;;;;;;;6212972;28;20065;-76
2023/06/10 17:21:27;;;;;;;7.03;6.40;;;;;;;;;;6222635;28;20450;-76
2023/06/10 17:24:28;;;;;;;9.48;6.85;;;;;;;;;;6215662;28;20080;-76
2023/06/10 17:27:30;;;;;;;6.72;6.13;;;;;;;;;;6214451;28;20058;-76
2023/06/10 17:30:32;;;;;;;7.40;6.30;;;;;;;;;;6233610;28;20037;-76
2023/06/10 17:33:33;;;;;;;6.80;6.10;;;;;;;;;;6224648;28;20051;-76
2023/06/10 17:36:35;;;;;;;7.07;6.40;;;;;;;;;;6209165;28;20052;-75
2023/06/10 17:39:37;;;;;;;7.20;6.50;;;;;;;;;;6217437;28;20044;-75
2023/06/10 17:42:39;;;;;;;7.82;6.82;;;;;;;;;;6215083;28;20452;-75
2023/06/10 17:45:40;;;;;;;7.43;6.65;;;;;;;;;;6216066;28;20065;-75
2023/06/10 17:48:42;;;;;;;7.25;6.65;;;;;;;;;;6215095;28;20099;-75
2023/06/10 17:51:44;;;;;;;8.90;6.65;;;;;;;;;;6214918;28;20037;-75
2023/06/10 17:54:46;;;;;;;7.82;6.07;;;;;;;;;;6209295;28;20053;-75
2023/06/10 17:57:47;;;;;;;9.23;6.63;;;;;;;;;;6211492;28;20404;-75
2023/06/10 18:00:49;;;;;;;8.83;6.93;;;;;;;;;;6180512;28;20445;-75
2023/06/10 18:03:51;;;;;;;8.50;6.57;;;;;;;;;;6218697;28;20054;-76
2023/06/10 18:06:54;;;;;;;10.45;7.22;;;;;;;;;;6218863;28;20262;-75
2023/06/10 18:09:55;;;;;;;7.95;7.13;;;;;;;;;;6212149;28;20571;-75
2023/06/10 18:12:57;;;;;;;7.67;6.90;;;;;;;;;;6198536;28;20053;-75